KCMX/CMX METAR and TAF weather

Enter ICAO airport designator
Station Type Date Time Source
KCMX METAR 2022/01/27 23:38 UTC NOAA

KCMX 272338Z AUTO 34008G16KT 10SM BKN031 M12/M18 A3021 RMK AO2 T11221183 $


Station Type Date Time Source
KCMX Decoded METAR 2022/01/27 23:38 UTC NOAA

HANCOCK HOUGHTON CTY. MEMO, MI, United States (KCMX) 47-10N 088-29W 326M
Jan 27, 2022 - 06:38 PM EST / 2022.01.27 2338 UTC
Wind: from the NNW (340 degrees) at 9 MPH (8 KT) gusting to 18 MPH (16 KT):0
Visibility: 10 mile(s):0
Sky conditions: mostly cloudy
Temperature: 10.0 F (-12.2 C)
Windchill: -2 F (-19 C):1
Dew Point: -0.9 F (-18.3 C)
Relative Humidity: 60%
Pressure (altimeter): 30.21 in. Hg (1023 hPa)
ob: KCMX 272338Z AUTO 34008G16KT 10SM BKN031 M12/M18 A3021 RMK AO2 T11221183
cycle: 23

Station Type Date Time Source
KCMX TAF 2022/01/27 21:39 UTC NOAA

TAF
AMD KCMX 272037Z 2721/2818 34014G23KT 2SM -SHSN BKN027
FM280000 33013G21KT P6SM -SHSN BKN028
FM280400 33009KT P6SM -SHSN BKN035
FM280900 VRB04KT P6SM -SHSN BKN026
FM281200 25006KT 5SM -SHSN OVC022
FM281600 24010G19KT 4SM -SHSN BKN027

Example: see airport list